sensor_id;sensor_type;location;lat;lon;timestamp;pressure;altitude;pressure_sealevel;temperature;humidity
27202;BME280;14717;46.924;15.474;2023-02-28T00:02:16;98752.75;;;1.75;66.23
27202;BME280;14717;46.924;15.474;2023-02-28T00:04:42;98759.22;;;1.81;65.83
27202;BME280;14717;46.924;15.474;2023-02-28T00:07:08;98756.03;;;1.90;66.67
27202;BME280;14717;46.924;15.474;2023-02-28T00:09:34;98754.41;;;1.83;66.83
27202;BME280;14717;46.924;15.474;2023-02-28T00:11:59;98758.84;;;1.71;66.62
27202;BME280;14717;46.924;15.474;2023-02-28T00:14:24;98762.63;;;1.64;68.39
27202;BME280;14717;46.924;15.474;2023-02-28T00:16:50;98760.75;;;1.64;68.61
27202;BME280;14717;46.924;15.474;2023-02-28T00:19:15;98765.75;;;1.73;67.27
27202;BME280;14717;46.924;15.474;2023-02-28T00:21:40;98763.41;;;1.77;67.92
27202;BME280;14717;46.924;15.474;2023-02-28T00:24:06;98768.44;;;1.80;68.50
27202;BME280;14717;46.924;15.474;2023-02-28T00:26:32;98764.91;;;1.73;68.94
27202;BME280;14717;46.924;15.474;2023-02-28T00:28:57;98768.69;;;1.66;70.00
27202;BME280;14717;46.924;15.474;2023-02-28T00:31:23;98772.69;;;1.63;68.88
27202;BME280;14717;46.924;15.474;2023-02-28T00:33:48;98768.31;;;1.56;69.09
27202;BME280;14717;46.924;15.474;2023-02-28T00:36:14;98777.53;;;1.55;69.79
27202;BME280;14717;46.924;15.474;2023-02-28T00:38:40;98772.69;;;1.69;69.44
27202;BME280;14717;46.924;15.474;2023-02-28T00:41:06;98768.28;;;1.68;68.63
27202;BME280;14717;46.924;15.474;2023-02-28T00:43:33;98768.91;;;1.64;68.76
27202;BME280;14717;46.924;15.474;2023-02-28T00:45:59;98774.34;;;1.70;68.49
27202;BME280;14717;46.924;15.474;2023-02-28T00:48:25;98773.69;;;1.75;68.74
27202;BME280;14717;46.924;15.474;2023-02-28T00:50:50;98772.38;;;1.84;68.76
27202;BME280;14717;46.924;15.474;2023-02-28T00:53:16;98770.31;;;1.86;68.53
27202;BME280;14717;46.924;15.474;2023-02-28T00:55:41;98765.75;;;1.67;69.29
27202;BME280;14717;46.924;15.474;2023-02-28T00:58:06;98771.41;;;1.66;68.92
27202;BME280;14717;46.924;15.474;2023-02-28T01:00:32;98763.72;;;1.56;69.00
27202;BME280;14717;46.924;15.474;2023-02-28T01:02:57;98768.13;;;1.44;69.43
27202;BME280;14717;46.924;15.474;2023-02-28T01:05:22;98765.38;;;1.57;69.79
27202;BME280;14717;46.924;15.474;2023-02-28T01:07:48;98771.41;;;1.66;69.72
27202;BME280;14717;46.924;15.474;2023-02-28T01:10:14;98769.78;;;1.58;70.22
27202;BME280;14717;46.924;15.474;2023-02-28T01:12:39;98771.84;;;1.63;69.65
27202;BME280;14717;46.924;15.474;2023-02-28T01:15:05;98762.88;;;1.56;69.39
27202;BME280;14717;46.924;15.474;2023-02-28T01:17:30;98764.59;;;1.37;70.51
27202;BME280;14717;46.924;15.474;2023-02-28T01:19:56;98764.59;;;1.37;70.08
27202;BME280;14717;46.924;15.474;2023-02-28T01:22:21;98769.16;;;1.56;69.14
27202;BME280;14717;46.924;15.474;2023-02-28T01:24:47;98763.66;;;1.69;67.97
27202;BME280;14717;46.924;15.474;2023-02-28T01:27:13;98770.78;;;1.70;67.81
27202;BME280;14717;46.924;15.474;2023-02-28T01:29:38;98767.63;;;1.73;68.69
27202;BME280;14717;46.924;15.474;2023-02-28T01:32:04;98761.97;;;1.81;68.48
27202;BME280;14717;46.924;15.474;2023-02-28T01:34:29;98769.44;;;1.85;68.31
27202;BME280;14717;46.924;15.474;2023-02-28T01:36:55;98768.19;;;1.88;67.42
27202;BME280;14717;46.924;15.474;2023-02-28T01:39:20;98764.22;;;1.84;66.67
27202;BME280;14717;46.924;15.474;2023-02-28T01:41:45;98768.69;;;1.72;69.46
27202;BME280;14717;46.924;15.474;2023-02-28T01:47:14;98769.28;;;1.74;68.73
27202;BME280;14717;46.924;15.474;2023-02-28T01:49:40;98763.41;;;1.77;68.32
27202;BME280;14717;46.924;15.474;2023-02-28T01:52:06;98766.16;;;1.70;67.64
27202;BME280;14717;46.924;15.474;2023-02-28T01:54:34;98763.28;;;1.59;67.85
27202;BME280;14717;46.924;15.474;2023-02-28T01:57:04;98758.66;;;1.66;69.36
27202;BME280;14717;46.924;15.474;2023-02-28T01:59:37;98769.09;;;1.69;68.09
27202;BME280;14717;46.924;15.474;2023-02-28T02:02:05;98765.31;;;1.76;68.53
27202;BME280;14717;46.924;15.474;2023-02-28T02:04:41;98761.81;;;1.63;67.81
27202;BME280;14717;46.924;15.474;2023-02-28T02:07:12;98755.38;;;1.51;67.87
27202;BME280;14717;46.924;15.474;2023-02-28T02:09:38;98750.53;;;1.60;68.20
27202;BME280;14717;46.924;15.474;2023-02-28T02:12:38;98760.34;;;1.61;69.03
27202;BME280;14717;46.924;15.474;2023-02-28T02:17:45;98759.50;;;1.67;68.89
27202;BME280;14717;46.924;15.474;2023-02-28T02:25:39;98753.13;;;1.79;68.66
27202;BME280;14717;46.924;15.474;2023-02-28T02:28:31;98755.88;;;1.79;67.93
27202;BME280;14717;46.924;15.474;2023-02-28T02:36:15;98753.84;;;1.68;70.82
27202;BME280;14717;46.924;15.474;2023-02-28T02:38:49;98756.38;;;1.63;71.66
27202;BME280;14717;46.924;15.474;2023-02-28T02:41:26;98758.47;;;1.61;71.50
27202;BME280;14717;46.924;15.474;2023-02-28T02:43:57;98764.34;;;1.58;71.93
27202;BME280;14717;46.924;15.474;2023-02-28T02:46:30;98761.63;;;1.58;71.54
27202;BME280;14717;46.924;15.474;2023-02-28T02:48:59;98756.97;;;1.65;71.82
27202;BME280;14717;46.924;15.474;2023-02-28T02:51:27;98751.72;;;1.70;72.01
27202;BME280;14717;46.924;15.474;2023-02-28T02:54:02;98754.44;;;1.76;72.19
27202;BME280;14717;46.924;15.474;2023-02-28T02:56:31;98759.47;;;1.73;72.39
27202;BME280;14717;46.924;15.474;2023-02-28T02:59:04;98764.53;;;1.63;72.00
27202;BME280;14717;46.924;15.474;2023-02-28T03:01:32;98762.41;;;1.65;73.25
27202;BME280;14717;46.924;15.474;2023-02-28T03:04:03;98763.66;;;1.69;72.89
27202;BME280;14717;46.924;15.474;2023-02-28T03:06:30;98766.19;;;1.64;72.57
27202;BME280;14717;46.924;15.474;2023-02-28T03:08:59;98760.75;;;1.64;72.74
27202;BME280;14717;46.924;15.474;2023-02-28T03:11:25;98754.47;;;1.64;73.75
27202;BME280;14717;46.924;15.474;2023-02-28T03:21:46;98751.59;;;1.46;73.64
27202;BME280;14717;46.924;15.474;2023-02-28T03:26:58;98754.53;;;1.44;73.05
27202;BME280;14717;46.924;15.474;2023-02-28T03:31:53;98762.09;;;1.36;74.41
27202;BME280;14717;46.924;15.474;2023-02-28T03:34:29;98759.78;;;1.39;75.32
27202;BME280;14717;46.924;15.474;2023-02-28T03:37:03;98765.03;;;1.34;75.87
27202;BME280;14717;46.924;15.474;2023-02-28T03:39:42;98764.78;;;1.42;74.74
27202;BME280;14717;46.924;15.474;2023-02-28T03:45:02;98765.19;;;1.46;76.07
27202;BME280;14717;46.924;15.474;2023-02-28T03:47:34;98766.41;;;1.63;74.71
27202;BME280;14717;46.924;15.474;2023-02-28T03:50:20;98771.59;;;1.70;74.64
27202;BME280;14717;46.924;15.474;2023-02-28T03:53:03;98768.69;;;1.72;75.19
27202;BME280;14717;46.924;15.474;2023-02-28T03:55:38;98762.44;;;1.59;75.41
27202;BME280;14717;46.924;15.474;2023-02-28T04:00:40;98770.03;;;1.44;75.87
27202;BME280;14717;46.924;15.474;2023-02-28T04:03:06;98771.69;;;1.51;75.38
27202;BME280;14717;46.924;15.474;2023-02-28T04:05:32;98769.19;;;1.43;75.67
27202;BME280;14717;46.924;15.474;2023-02-28T04:08:05;98776.31;;;1.44;77.22
27202;BME280;14717;46.924;15.474;2023-02-28T04:10:31;98782.16;;;1.48;75.51
27202;BME280;14717;46.924;15.474;2023-02-28T04:12:56;98773.53;;;1.57;75.41
27202;BME280;14717;46.924;15.474;2023-02-28T04:15:21;98779.59;;;1.59;75.88
27202;BME280;14717;46.924;15.474;2023-02-28T04:17:49;98780.91;;;1.50;75.91
27202;BME280;14717;46.924;15.474;2023-02-28T04:20:15;98788.66;;;1.53;74.97
27202;BME280;14717;46.924;15.474;2023-02-28T04:22:40;98791.75;;;1.63;75.17
27202;BME280;14717;46.924;15.474;2023-02-28T04:25:06;98783.00;;;1.48;74.43
27202;BME280;14717;46.924;15.474;2023-02-28T04:27:32;98789.06;;;1.44;75.12
27202;BME280;14717;46.924;15.474;2023-02-28T04:29:58;98786.56;;;1.49;74.83
27202;BME280;14717;46.924;15.474;2023-02-28T04:32:23;98791.38;;;1.53;75.60
27202;BME280;14717;46.924;15.474;2023-02-28T04:34:48;98785.91;;;1.60;74.69
27202;BME280;14717;46.924;15.474;2023-02-28T04:37:14;98792.38;;;1.65;75.05
27202;BME280;14717;46.924;15.474;2023-02-28T04:39:40;98792.63;;;1.51;75.80
27202;BME280;14717;46.924;15.474;2023-02-28T04:42:05;98792.78;;;1.62;76.29
27202;BME280;14717;46.924;15.474;2023-02-28T04:44:31;98795.91;;;1.66;75.12
27202;BME280;14717;46.924;15.474;2023-02-28T04:46:56;98788.44;;;1.48;76.99
27202;BME280;14717;46.924;15.474;2023-02-28T04:49:22;98787.44;;;1.36;78.23
27202;BME280;14717;46.924;15.474;2023-02-28T04:51:47;98792.25;;;1.28;80.53
27202;BME280;14717;46.924;15.474;2023-02-28T04:54:15;98793.31;;;1.21;80.20
27202;BME280;14717;46.924;15.474;2023-02-28T04:56:41;98784.34;;;1.14;80.22
27202;BME280;14717;46.924;15.474;2023-02-28T04:59:06;98783.69;;;1.12;79.98
27202;BME280;14717;46.924;15.474;2023-02-28T05:01:33;98784.53;;;1.12;78.97
27202;BME280;14717;46.924;15.474;2023-02-28T05:04:01;98782.66;;;1.13;78.45
27202;BME280;14717;46.924;15.474;2023-02-28T05:06:28;98786.41;;;1.12;78.55
27202;BME280;14717;46.924;15.474;2023-02-28T05:08:55;98780.97;;;1.12;76.52
27202;BME280;14717;46.924;15.474;2023-02-28T05:11:24;98775.53;;;1.12;74.88
27202;BME280;14717;46.924;15.474;2023-02-28T05:13:51;98780.34;;;1.10;76.04
27202;BME280;14717;46.924;15.474;2023-02-28T05:16:17;98779.72;;;1.08;75.15
27202;BME280;14717;46.924;15.474;2023-02-28T05:18:43;98783.94;;;1.04;74.51
27202;BME280;14717;46.924;15.474;2023-02-28T05:23:49;98780.34;;;1.10;75.53
27202;BME280;14717;46.924;15.474;2023-02-28T05:26:14;98788.09;;;1.13;73.95
27202;BME280;14717;46.924;15.474;2023-02-28T05:28:40;98798.97;;;1.19;73.66
27202;BME280;14717;46.924;15.474;2023-02-28T05:31:05;98802.31;;;1.21;73.39
27202;BME280;14717;46.924;15.474;2023-02-28T05:33:30;98800.19;;;1.23;73.76
27202;BME280;14717;46.924;15.474;2023-02-28T05:35:56;98803.38;;;1.20;73.33
27202;BME280;14717;46.924;15.474;2023-02-28T05:38:21;98807.13;;;1.19;73.84
27202;BME280;14717;46.924;15.474;2023-02-28T05:40:46;98799.78;;;1.20;73.33
27202;BME280;14717;46.924;15.474;2023-02-28T05:43:12;98810.88;;;1.25;73.88
27202;BME280;14717;46.924;15.474;2023-02-28T05:45:37;98808.16;;;1.25;73.16
27202;BME280;14717;46.924;15.474;2023-02-28T05:48:03;98808.16;;;1.25;73.49
27202;BME280;14717;46.924;15.474;2023-02-28T05:50:28;98812.34;;;1.21;72.43
27202;BME280;14717;46.924;15.474;2023-02-28T05:52:53;98813.59;;;1.25;72.63
27202;BME280;14717;46.924;15.474;2023-02-28T05:55:19;98818.22;;;1.24;72.15
27202;BME280;14717;46.924;15.474;2023-02-28T05:57:44;98811.09;;;1.23;72.46
27202;BME280;14717;46.924;15.474;2023-02-28T06:00:10;98819.03;;;1.25;74.17
27202;BME280;14717;46.924;15.474;2023-02-28T06:02:38;98820.31;;;1.28;73.61
27202;BME280;14717;46.924;15.474;2023-02-28T06:05:04;98825.97;;;1.27;74.54
27202;BME280;14717;46.924;15.474;2023-02-28T06:07:29;98835.38;;;1.25;73.54
27202;BME280;14717;46.924;15.474;2023-02-28T06:09:55;98831.00;;;1.24;73.68
27202;BME280;14717;46.924;15.474;2023-02-28T06:12:20;98829.91;;;1.25;74.16
27202;BME280;14717;46.924;15.474;2023-02-28T06:14:45;98838.28;;;1.23;73.19
27202;BME280;14717;46.924;15.474;2023-02-28T06:17:11;98841.66;;;1.25;74.24
27202;BME280;14717;46.924;15.474;2023-02-28T06:19:37;98848.13;;;1.24;73.08
27202;BME280;14717;46.924;15.474;2023-02-28T06:22:05;98850.03;;;1.30;73.21
27202;BME280;14717;46.924;15.474;2023-02-28T06:24:30;98853.16;;;1.46;73.47
27202;BME280;14717;46.924;15.474;2023-02-28T06:26:56;98848.13;;;1.56;72.64
27202;BME280;14717;46.924;15.474;2023-02-28T06:29:24;98861.25;;;1.66;71.06
27202;BME280;14717;46.924;15.474;2023-02-28T06:31:49;98847.84;;;1.70;71.42
27202;BME280;14717;46.924;15.474;2023-02-28T06:34:15;98866.69;;;1.72;71.67
27202;BME280;14717;46.924;15.474;2023-02-28T06:36:41;98849.94;;;1.75;71.45
27202;BME280;14717;46.924;15.474;2023-02-28T06:39:07;98854.97;;;1.78;71.20
27202;BME280;14717;46.924;15.474;2023-02-28T06:41:33;98865.25;;;1.76;71.20
27202;BME280;14717;46.924;15.474;2023-02-28T06:44:09;98869.41;;;1.72;70.15
27202;BME280;14717;46.924;15.474;2023-02-28T06:46:36;98855.19;;;1.76;69.90
27202;BME280;14717;46.924;15.474;2023-02-28T06:49:03;98876.75;;;1.78;69.86
27202;BME280;14717;46.924;15.474;2023-02-28T06:51:29;98876.31;;;1.81;69.07
27202;BME280;14717;46.924;15.474;2023-02-28T06:53:54;98875.44;;;1.87;69.87
27202;BME280;14717;46.924;15.474;2023-02-28T06:56:19;98872.13;;;1.85;70.15
27202;BME280;14717;46.924;15.474;2023-02-28T06:58:49;98884.25;;;1.89;69.51
27202;BME280;14717;46.924;15.474;2023-02-28T07:01:15;98884.72;;;1.73;69.37
27202;BME280;14717;46.924;15.474;2023-02-28T07:03:41;98887.25;;;1.62;69.36
27202;BME280;14717;46.924;15.474;2023-02-28T07:06:06;98887.25;;;1.55;69.39
27202;BME280;14717;46.924;15.474;2023-02-28T07:08:33;98894.38;;;1.50;69.30
27202;BME280;14717;46.924;15.474;2023-02-28T07:10:58;98891.66;;;1.50;69.62
27202;BME280;14717;46.924;15.474;2023-02-28T07:13:24;98891.00;;;1.54;70.55
27202;BME280;14717;46.924;15.474;2023-02-28T07:16:00;98890.19;;;1.47;70.02
27202;BME280;14717;46.924;15.474;2023-02-28T07:18:26;98891.88;;;1.48;70.25
27202;BME280;14717;46.924;15.474;2023-02-28T07:20:52;98883.72;;;1.48;68.99
27202;BME280;14717;46.924;15.474;2023-02-28T07:23:18;98878.25;;;1.61;70.08
27202;BME280;14717;46.924;15.474;2023-02-28T07:25:44;98882.44;;;1.57;69.51
27202;BME280;14717;46.924;15.474;2023-02-28T07:28:11;98897.31;;;1.48;69.77
27202;BME280;14717;46.924;15.474;2023-02-28T07:30:36;98895.22;;;1.50;69.73
27202;BME280;14717;46.924;15.474;2023-02-28T07:33:01;98887.03;;;1.63;70.85
27202;BME280;14717;46.924;15.474;2023-02-28T07:35:27;98895.00;;;1.65;70.49
27202;BME280;14717;46.924;15.474;2023-02-28T07:37:52;98897.31;;;1.61;70.10
27202;BME280;14717;46.924;15.474;2023-02-28T07:40:18;98892.69;;;1.55;69.85
27202;BME280;14717;46.924;15.474;2023-02-28T07:42:44;98897.31;;;1.61;70.51
27202;BME280;14717;46.924;15.474;2023-02-28T07:45:10;98899.16;;;1.67;70.46
27202;BME280;14717;46.924;15.474;2023-02-28T07:47:37;98896.84;;;1.70;69.78
27202;BME280;14717;46.924;15.474;2023-02-28T07:50:03;98896.66;;;1.72;68.71
27202;BME280;14717;46.924;15.474;2023-02-28T07:52:29;98900.44;;;1.71;70.14
27202;BME280;14717;46.924;15.474;2023-02-28T07:54:54;98907.75;;;1.64;68.96
27202;BME280;14717;46.924;15.474;2023-02-28T07:57:19;98897.72;;;1.71;69.75
27202;BME280;14717;46.924;15.474;2023-02-28T07:59:44;98913.66;;;1.61;69.29
27202;BME280;14717;46.924;15.474;2023-02-28T08:02:14;98910.06;;;1.67;69.95
27202;BME280;14717;46.924;15.474;2023-02-28T08:04:39;98917.59;;;1.71;69.13
27202;BME280;14717;46.924;15.474;2023-02-28T08:07:05;98914.06;;;1.65;69.60
27202;BME280;14717;46.924;15.474;2023-02-28T08:09:30;98911.97;;;1.60;69.00
27202;BME280;14717;46.924;15.474;2023-02-28T08:11:56;98920.34;;;1.65;69.23
27202;BME280;14717;46.924;15.474;2023-02-28T08:14:21;98906.91;;;1.76;70.36
27202;BME280;14717;46.924;15.474;2023-02-28T08:16:46;98922.81;;;1.86;69.07
27202;BME280;14717;46.924;15.474;2023-02-28T08:19:12;98919.06;;;1.74;68.62
27202;BME280;14717;46.924;15.474;2023-02-28T08:21:37;98922.44;;;1.76;69.17
27202;BME280;14717;46.924;15.474;2023-02-28T08:24:02;98922.84;;;1.67;68.71
27202;BME280;14717;46.924;15.474;2023-02-28T08:26:28;98920.75;;;1.68;69.58
27202;BME280;14717;46.924;15.474;2023-02-28T08:28:53;98918.84;;;1.82;68.97
27202;BME280;14717;46.924;15.474;2023-02-28T08:31:19;98918.81;;;1.95;69.16
27202;BME280;14717;46.924;15.474;2023-02-28T08:33:45;98915.47;;;1.86;68.69
27202;BME280;14717;46.924;15.474;2023-02-28T08:36:12;98924.69;;;1.92;68.91
27202;BME280;14717;46.924;15.474;2023-02-28T08:38:37;98924.06;;;1.90;69.03
27202;BME280;14717;46.924;15.474;2023-02-28T08:41:07;98922.81;;;1.86;69.27
27202;BME280;14717;46.924;15.474;2023-02-28T08:43:34;98925.97;;;1.83;68.69
27202;BME280;14717;46.924;15.474;2023-02-28T08:45:59;98928.91;;;1.81;68.54
27202;BME280;14717;46.924;15.474;2023-02-28T08:48:29;98925.75;;;1.78;68.53
27202;BME280;14717;46.924;15.474;2023-02-28T08:51:07;98929.31;;;1.85;68.80
27202;BME280;14717;46.924;15.474;2023-02-28T08:53:34;98917.28;;;2.11;69.03
27202;BME280;14717;46.924;15.474;2023-02-28T08:56:03;98932.84;;;1.92;68.67
27202;BME280;14717;46.924;15.474;2023-02-28T08:58:29;98924.69;;;1.92;68.77
27202;BME280;14717;46.924;15.474;2023-02-28T09:00:55;98925.66;;;2.16;68.08
27202;BME280;14717;46.924;15.474;2023-02-28T09:03:21;98921.22;;;2.28;68.55
27202;BME280;14717;46.924;15.474;2023-02-28T09:05:58;98934.66;;;2.23;67.97
27202;BME280;14717;46.924;15.474;2023-02-28T09:08:25;98941.63;;;2.07;69.20
27202;BME280;14717;46.924;15.474;2023-02-28T09:10:51;98932.63;;;2.00;68.87
27202;BME280;14717;46.924;15.474;2023-02-28T09:13:18;98934.91;;;2.09;68.99
27202;BME280;14717;46.924;15.474;2023-02-28T09:15:43;98933.44;;;2.07;68.53
27202;BME280;14717;46.924;15.474;2023-02-28T09:18:09;98933.22;;;2.14;68.85
27202;BME280;14717;46.924;15.474;2023-02-28T09:20:37;98928.19;;;2.11;67.67
27202;BME280;14717;46.924;15.474;2023-02-28T09:23:03;98928.13;;;2.37;67.47
27202;BME280;14717;46.924;15.474;2023-02-28T09:25:28;98931.78;;;2.62;67.11
27202;BME280;14717;46.924;15.474;2023-02-28T09:27:54;98929.50;;;2.53;67.61
27202;BME280;14717;46.924;15.474;2023-02-28T09:30:19;98925.91;;;2.65;68.19
27202;BME280;14717;46.924;15.474;2023-02-28T09:32:44;98936.69;;;2.84;67.33
27202;BME280;14717;46.924;15.474;2023-02-28T09:35:17;98937.91;;;2.95;66.09
27202;BME280;14717;46.924;15.474;2023-02-28T09:37:43;98933.91;;;2.97;66.19
27202;BME280;14717;46.924;15.474;2023-02-28T09:40:09;98934.94;;;3.02;65.44
27202;BME280;14717;46.924;15.474;2023-02-28T09:42:35;98934.88;;;3.09;66.23
27202;BME280;14717;46.924;15.474;2023-02-28T09:45:08;98931.88;;;3.17;65.88
27202;BME280;14717;46.924;15.474;2023-02-28T09:47:42;98938.97;;;3.24;64.54
27202;BME280;14717;46.924;15.474;2023-02-28T09:52:45;98936.28;;;2.81;66.77
27202;BME280;14717;46.924;15.474;2023-02-28T09:55:30;98941.38;;;2.71;65.74
27202;BME280;14717;46.924;15.474;2023-02-28T09:58:00;98925.78;;;2.84;67.21
27202;BME280;14717;46.924;15.474;2023-02-28T10:00:39;98927.00;;;2.95;65.96
27202;BME280;14717;46.924;15.474;2023-02-28T10:05:56;98932.00;;;3.28;65.78
27202;BME280;14717;46.924;15.474;2023-02-28T10:08:35;98935.53;;;3.35;64.09
27202;BME280;14717;46.924;15.474;2023-02-28T10:11:07;98936.63;;;3.28;63.65
27202;BME280;14717;46.924;15.474;2023-02-28T10:13:52;98932.78;;;3.11;65.11
27202;BME280;14717;46.924;15.474;2023-02-28T10:18:50;98933.38;;;2.76;63.39
27202;BME280;14717;46.924;15.474;2023-02-28T10:21:30;98923.41;;;2.57;64.43
27202;BME280;14717;46.924;15.474;2023-02-28T10:24:20;98928.63;;;3.02;64.01
27202;BME280;14717;46.924;15.474;2023-02-28T10:26:48;98924.81;;;3.09;65.49
27202;BME280;14717;46.924;15.474;2023-02-28T10:29:17;98934.22;;;2.83;63.49
27202;BME280;14717;46.924;15.474;2023-02-28T10:31:43;98935.50;;;2.74;65.15
27202;BME280;14717;46.924;15.474;2023-02-28T10:34:12;98922.56;;;2.63;64.90
27202;BME280;14717;46.924;15.474;2023-02-28T10:36:38;98927.94;;;2.76;65.62
27202;BME280;14717;46.924;15.474;2023-02-28T10:39:37;98922.47;;;2.76;64.31
27202;BME280;14717;46.924;15.474;2023-02-28T10:42:03;98919.00;;;2.99;64.39
27202;BME280;14717;46.924;15.474;2023-02-28T10:44:29;98923.94;;;3.39;63.97
27202;BME280;14717;46.924;15.474;2023-02-28T10:46:55;98918.66;;;3.44;61.68
27202;BME280;14717;46.924;15.474;2023-02-28T10:49:23;98918.44;;;3.46;62.70
27202;BME280;14717;46.924;15.474;2023-02-28T10:51:54;98917.16;;;3.24;63.14
27202;BME280;14717;46.924;15.474;2023-02-28T10:54:24;98915.91;;;3.44;61.91
27202;BME280;14717;46.924;15.474;2023-02-28T10:57:14;98910.84;;;3.72;62.21
27202;BME280;14717;46.924;15.474;2023-02-28T10:59:40;98910.66;;;3.91;61.32
27202;BME280;14717;46.924;15.474;2023-02-28T11:02:35;98901.13;;;4.18;61.55
27202;BME280;14717;46.924;15.474;2023-02-28T11:05:04;98900.97;;;4.13;60.47
27202;BME280;14717;46.924;15.474;2023-02-28T11:07:54;98891.53;;;4.27;59.61
27202;BME280;14717;46.924;15.474;2023-02-28T11:10:24;98893.69;;;4.43;60.01
27202;BME280;14717;46.924;15.474;2023-02-28T11:12:54;98890.84;;;3.96;62.10
27202;BME280;14717;46.924;15.474;2023-02-28T11:15:32;98886.19;;;3.79;61.47
27202;BME280;14717;46.924;15.474;2023-02-28T11:18:24;98884.72;;;4.18;60.92
27202;BME280;14717;46.924;15.474;2023-02-28T11:20:54;98885.91;;;4.22;60.21
27202;BME280;14717;46.924;15.474;2023-02-28T11:23:21;98881.97;;;4.18;61.19
27202;BME280;14717;46.924;15.474;2023-02-28T11:25:56;98879.88;;;3.60;61.47
27202;BME280;14717;46.924;15.474;2023-02-28T11:28:33;98883.75;;;3.71;61.28
27202;BME280;14717;46.924;15.474;2023-02-28T11:33:49;98877.41;;;4.30;58.78
27202;BME280;14717;46.924;15.474;2023-02-28T11:36:24;98876.97;;;4.33;59.38
27202;BME280;14717;46.924;15.474;2023-02-28T11:38:51;98875.81;;;4.40;59.31
27202;BME280;14717;46.924;15.474;2023-02-28T11:49:40;98857.06;;;4.44;57.55
27202;BME280;14717;46.924;15.474;2023-02-28T11:55:02;98859.16;;;4.42;60.02
27202;BME280;14717;46.924;15.474;2023-02-28T12:02:59;98854.69;;;4.65;60.76
27202;BME280;14717;46.924;15.474;2023-02-28T12:16:37;98837.09;;;4.72;60.53
27202;BME280;14717;46.924;15.474;2023-02-28T12:19:19;98840.41;;;4.74;59.82
27202;BME280;14717;46.924;15.474;2023-02-28T12:24:42;98840.47;;;4.86;61.00
27202;BME280;14717;46.924;15.474;2023-02-28T12:27:13;98832.41;;;5.02;60.63
27202;BME280;14717;46.924;15.474;2023-02-28T12:29:43;98826.41;;;4.82;60.13
27202;BME280;14717;46.924;15.474;2023-02-28T12:32:20;98822.41;;;5.07;60.79
27202;BME280;14717;46.924;15.474;2023-02-28T12:35:01;98822.25;;;4.91;61.10
27202;BME280;14717;46.924;15.474;2023-02-28T12:37:33;98820.34;;;4.80;61.35
27202;BME280;14717;46.924;15.474;2023-02-28T12:40:01;98822.25;;;4.91;60.69
27202;BME280;14717;46.924;15.474;2023-02-28T12:42:33;98807.50;;;4.92;60.67
27202;BME280;14717;46.924;15.474;2023-02-28T12:45:05;98812.91;;;5.10;61.07
27202;BME280;14717;46.924;15.474;2023-02-28T12:47:34;98807.59;;;5.38;60.66
27202;BME280;14717;46.924;15.474;2023-02-28T12:50:03;98796.41;;;5.28;59.21
27202;BME280;14717;46.924;15.474;2023-02-28T12:53:13;98805.41;;;5.17;60.95
27202;BME280;14717;46.924;15.474;2023-02-28T12:58:48;98807.22;;;5.23;60.92
27202;BME280;14717;46.924;15.474;2023-02-28T13:09:16;98790.31;;;5.37;61.28
27202;BME280;14717;46.924;15.474;2023-02-28T13:11:45;98794.28;;;5.52;59.43
27202;BME280;14717;46.924;15.474;2023-02-28T13:17:19;98793.53;;;5.68;58.58
27202;BME280;14717;46.924;15.474;2023-02-28T13:20:13;98791.66;;;5.69;59.03
27202;BME280;14717;46.924;15.474;2023-02-28T13:22:44;98784.97;;;5.76;58.86
27202;BME280;14717;46.924;15.474;2023-02-28T13:27:53;98769.66;;;6.03;58.16
27202;BME280;14717;46.924;15.474;2023-02-28T13:33:25;98767.81;;;5.92;58.54
27202;BME280;14717;46.924;15.474;2023-02-28T13:36:07;98766.25;;;5.96;58.28
27202;BME280;14717;46.924;15.474;2023-02-28T13:38:41;98762.53;;;6.02;58.60
27202;BME280;14717;46.924;15.474;2023-02-28T13:44:21;98766.16;;;5.46;60.31
27202;BME280;14717;46.924;15.474;2023-02-28T13:52:02;98754.81;;;5.53;59.19
27202;BME280;14717;46.924;15.474;2023-02-28T13:57:23;98755.44;;;5.55;59.99
27202;BME280;14717;46.924;15.474;2023-02-28T14:03:03;98747.69;;;5.75;57.67
27202;BME280;14717;46.924;15.474;2023-02-28T14:05:33;98754.00;;;5.42;58.08
27202;BME280;14717;46.924;15.474;2023-02-28T14:08:05;98751.00;;;5.20;57.96
27202;BME280;14717;46.924;15.474;2023-02-28T14:10:51;98746.00;;;5.51;58.50
27202;BME280;14717;46.924;15.474;2023-02-28T14:15:57;98731.69;;;4.93;60.59
27202;BME280;14717;46.924;15.474;2023-02-28T14:18:32;98732.44;;;4.88;61.22
27202;BME280;14717;46.924;15.474;2023-02-28T14:21:29;98723.28;;;5.28;60.90
27202;BME280;14717;46.924;15.474;2023-02-28T14:27:03;98719.88;;;5.83;59.12
27202;BME280;14717;46.924;15.474;2023-02-28T14:35:35;98726.16;;;6.06;58.63
27202;BME280;14717;46.924;15.474;2023-02-28T14:38:06;98720.63;;;5.90;58.26
27202;BME280;14717;46.924;15.474;2023-02-28T14:40:35;98721.09;;;5.87;57.61
27202;BME280;14717;46.924;15.474;2023-02-28T14:43:05;98726.59;;;5.64;58.10
27202;BME280;14717;46.924;15.474;2023-02-28T14:45:35;98715.63;;;5.76;59.17
27202;BME280;14717;46.924;15.474;2023-02-28T14:48:04;98722.28;;;5.68;59.12
27202;BME280;14717;46.924;15.474;2023-02-28T14:50:36;98726.22;;;5.84;58.33
27202;BME280;14717;46.924;15.474;2023-02-28T14:53:02;98725.88;;;5.80;58.36
27202;BME280;14717;46.924;15.474;2023-02-28T14:55:31;98720.00;;;5.88;58.48
27202;BME280;14717;46.924;15.474;2023-02-28T14:57:59;98730.50;;;5.80;58.58
27202;BME280;14717;46.924;15.474;2023-02-28T15:00:28;98721.56;;;5.84;58.69
27202;BME280;14717;46.924;15.474;2023-02-28T15:02:55;98726.34;;;5.89;58.41
27202;BME280;14717;46.924;15.474;2023-02-28T15:05:32;98731.59;;;5.67;58.87
27202;BME280;14717;46.924;15.474;2023-02-28T15:08:17;98729.78;;;5.73;58.77
27202;BME280;14717;46.924;15.474;2023-02-28T15:11:23;98730.28;;;5.58;59.00
27202;BME280;14717;46.924;15.474;2023-02-28T15:13:50;98726.81;;;5.51;57.03
27202;BME280;14717;46.924;15.474;2023-02-28T15:16:20;98734.00;;;5.52;58.70